Terminal Aerodrome Forecast
Issued by NWS

Current Version | Previous Version | Text Only | Print | Product List | Glossary On
Versions: 1 2 3 4 5 6 7 8 9 10 11 12
000
FTUS45 KVEF 282324
TAFDAG
TAF
KDAG 282324Z 2900/2924 06010KT P6SM SCT140 SCT200
     FM290200 12007KT P6SM SCT120 SCT200
     FM290500 27006KT P6SM SCT120 SCT200
     FM291600 VRB06KT P6SM SCT120 SCT200=

USA.gov is the U.S. government's official web portal to all federal, state and local government web resources and services.